Crazy Crazy — FGD2432 — position and weather

sailwx.info

Track history (hours):
 
Tides and Currents Weather Stations Pressure Air Temp Water Temp Dewpoint Dewpoint Depression Visibility Wind Speed Wind Dir Waves Ship Positions

Crazy Crazy

Last reported at 2017-Oct-14 11:19 UTC. Time now 2017-Nov-18 21:51 UTC.
Position N 48°33' W 002°42'.
Warning: this ship's position is 35 days out of date.

Length 10 m.

Type: Sailing vessel. MMSI: 227550490.

Date/timePositionNaut miles runAvg speedWind from/ knotsBaromVisibWave heightAir tempDewpointWater temp
2017-Oct-14 11:19N 48°33' W 002°42'81 2.2
2017-Oct-12 22:34N 48°35' W 004°44'2 8.0
2017-Oct-12 22:17N 48°34' W 004°46'3 8.1
2017-Oct-12 21:58N 48°32' W 004°49'3 7.1
2017-Oct-12 21:30N 48°28' W 004°49'4 7.6
2017-Oct-12 20:58N 48°24' W 004°49'6 7.6
2017-Oct-12 20:11N 48°18' W 004°48'1 5.5
2017-Oct-12 20:00N 48°17' W 004°48'3 5.9
2017-Oct-12 19:29N 48°14' W 004°48'3 6.5
2017-Oct-12 19:00N 48°11' W 004°47'4 7.0
2017-Oct-12 18:30N 48°08' W 004°47'4 8.5
2017-Oct-12 18:00N 48°03' W 004°46'54 7.6
2017-Oct-12 10:57N 47°42' W 003°33'3 6.9
2017-Oct-12 10:30N 47°42' W 003°28'4 7.2
2017-Oct-12 10:00N 47°42' W 003°23'2 4.0
2017-Oct-12 09:30N 47°44' W 003°22'  
Track history (hours):
 
Tides and Currents Weather Stations Pressure Air Temp Water Temp Dewpoint Dewpoint Depression Visibility Wind Speed Wind Dir Waves Ship Positions

Crazy Crazy

Last reported at 2017-Oct-14 11:19 UTC. Time now 2017-Nov-18 21:51 UTC.
Position N 48°33' W 002°42'.
Warning: this ship's position is 35 days out of date.

Length 10 m.

Type: Sailing vessel. MMSI: 227550490.

Date/timePositionNaut miles runAvg speedWind from/ knotsBaromVisibWave heightAir tempDewpointWater temp
2017-Oct-14 11:19N 48°33' W 002°42'81 2.2
2017-Oct-12 22:34N 48°35' W 004°44'2 8.0
2017-Oct-12 22:17N 48°34' W 004°46'3 8.1
2017-Oct-12 21:58N 48°32' W 004°49'3 7.1
2017-Oct-12 21:30N 48°28' W 004°49'4 7.6
2017-Oct-12 20:58N 48°24' W 004°49'6 7.6
2017-Oct-12 20:11N 48°18' W 004°48'1 5.5
2017-Oct-12 20:00N 48°17' W 004°48'3 5.9
2017-Oct-12 19:29N 48°14' W 004°48'3 6.5
2017-Oct-12 19:00N 48°11' W 004°47'4 7.0
2017-Oct-12 18:30N 48°08' W 004°47'4 8.5
2017-Oct-12 18:00N 48°03' W 004°46'54 7.6
2017-Oct-12 10:57N 47°42' W 003°33'3 6.9
2017-Oct-12 10:30N 47°42' W 003°28'4 7.2
2017-Oct-12 10:00N 47°42' W 003°23'2 4.0
2017-Oct-12 09:30N 47°44' W 003°22'  

Dump ship's entire track history